createdAt,value
2019-05-02T03:32:30.931Z,4.80
2019-05-02T03:37:44.841Z,4.80
2019-05-02T03:42:47.681Z,4.80
2019-05-02T03:47:51.273Z,4.80
2019-05-02T03:52:54.553Z,4.90
2019-05-02T03:57:57.282Z,4.80
2019-05-02T04:03:02.139Z,4.80
2019-05-02T04:08:04.463Z,4.80
2019-05-02T04:13:09.134Z,4.90
2019-05-02T04:23:38.057Z,5.10
2019-05-02T04:28:45.555Z,5.10
2019-05-02T04:33:56.894Z,5.30
2019-05-02T04:39:15.600Z,5.50
2019-05-02T04:44:20.194Z,5.70
2019-05-02T04:49:53.930Z,6.00
2019-05-02T04:55:08.209Z,6.10
2019-05-02T05:06:12.060Z,6.40
2019-05-02T05:11:21.312Z,6.70
2019-05-02T05:16:21.748Z,6.90
2019-05-02T05:21:25.024Z,7.20
2019-05-02T05:26:34.018Z,7.50
2019-05-02T05:31:38.247Z,7.80
2019-05-02T05:36:52.355Z,8.20
2019-05-02T05:42:04.195Z,8.60
2019-05-02T05:58:52.547Z,9.70
2019-05-02T06:03:57.835Z,10.20
2019-05-02T06:09:01.335Z,10.70
2019-05-02T06:14:05.954Z,11.30
2019-05-02T06:36:39.557Z,13.10
2019-05-02T06:41:42.196Z,13.50
2019-05-02T06:46:45.323Z,13.80
2019-05-02T06:52:13.842Z,14.20
2019-05-02T06:57:19.170Z,14.40
2019-05-02T07:02:20.787Z,14.70
2019-05-02T07:07:24.793Z,15.00
2019-05-02T07:12:34.264Z,15.20
2019-05-02T07:17:40.164Z,15.50
2019-05-02T07:23:03.728Z,15.80
2019-05-02T07:28:09.414Z,16.10
2019-05-02T07:33:14.020Z,16.50
2019-05-02T07:38:33.804Z,16.80
2019-05-02T08:07:27.171Z,18.00
2019-05-02T08:18:37.433Z,18.30
2019-05-02T08:23:47.545Z,18.50
2019-05-02T08:29:15.983Z,18.70
2019-05-02T08:34:31.506Z,18.90
2019-05-02T08:39:41.744Z,19.10
2019-05-02T08:45:05.185Z,19.20
2019-05-02T08:55:34.922Z,19.50
2019-05-02T09:00:48.288Z,19.50
2019-05-02T09:06:05.238Z,19.70
2019-05-02T09:10:58.024Z,19.80
2019-05-02T09:16:03.589Z,20.10
2019-05-02T09:21:31.468Z,20.50
2019-05-02T09:26:36.124Z,21.10
2019-05-02T09:31:36.746Z,21.40
2019-05-02T09:36:46.711Z,21.50
2019-05-02T09:41:49.180Z,21.90
2019-05-02T09:47:05.435Z,22.00
2019-05-02T09:52:25.902Z,21.50
2019-05-02T09:57:28.792Z,20.80
2019-05-02T10:02:32.521Z,20.60
2019-05-02T10:07:37.277Z,21.00
2019-05-02T10:12:46.739Z,21.70
2019-05-02T10:17:49.341Z,22.10
2019-05-02T10:22:52.971Z,22.10
2019-05-02T10:27:56.004Z,21.90
2019-05-02T10:32:59.796Z,21.60
2019-05-02T10:38:19.266Z,21.50
2019-05-02T10:43:18.789Z,21.60
2019-05-02T10:48:28.032Z,21.80
2019-05-02T10:53:39.980Z,21.80
2019-05-02T10:58:42.642Z,22.00
2019-05-02T11:03:47.577Z,22.20
2019-05-02T11:08:52.481Z,22.40
2019-05-02T11:14:06.851Z,22.20
2019-05-02T11:19:13.021Z,22.70
2019-05-02T11:24:17.459Z,23.40
2019-05-02T11:29:19.924Z,23.10
2019-05-02T11:34:22.367Z,22.80
2019-05-02T11:39:32.894Z,23.10
2019-05-02T11:44:41.896Z,23.00
2019-05-02T11:49:46.883Z,22.50
2019-05-02T11:54:48.934Z,22.50
2019-05-02T11:59:52.141Z,22.60
2019-05-02T12:04:55.636Z,22.80
2019-05-02T12:09:58.142Z,23.10
2019-05-02T12:15:02.470Z,23.00
2019-05-02T12:20:05.232Z,22.90
2019-05-02T12:25:07.837Z,23.50
2019-05-02T12:30:11.782Z,23.60
2019-05-02T12:35:14.458Z,23.60
2019-05-02T12:40:17.011Z,23.70
2019-05-02T12:45:21.939Z,23.60
2019-05-02T12:50:24.429Z,23.50
2019-05-02T12:55:27.243Z,23.30
2019-05-02T13:00:32.025Z,23.10
2019-05-02T13:05:34.691Z,22.90
2019-05-02T13:11:01.823Z,23.40
2019-05-02T13:16:01.636Z,23.80
2019-05-02T13:21:08.003Z,23.60
2019-05-02T13:26:19.133Z,23.60
2019-05-02T13:37:16.915Z,24.40
2019-05-02T13:42:21.848Z,24.60
2019-05-02T13:47:32.507Z,24.50
2019-05-02T13:52:35.664Z,25.60
2019-05-02T13:57:46.881Z,26.20
2019-05-02T14:02:47.444Z,27.80
2019-05-02T14:07:55.644Z,28.40
2019-05-02T14:12:58.680Z,29.40
2019-05-02T14:18:02.461Z,29.20
2019-05-02T14:23:07.371Z,28.90
2019-05-02T14:28:09.723Z,28.70
2019-05-02T14:33:17.299Z,29.20
2019-05-02T14:38:19.687Z,30.30
2019-05-02T14:43:46.208Z,30.70
2019-05-02T14:48:45.586Z,31.90
2019-05-02T14:53:47.905Z,32.10
2019-05-02T14:58:52.596Z,31.70
2019-05-02T15:03:58.369Z,31.40
2019-05-02T15:08:58.575Z,31.30
2019-05-02T15:14:02.996Z,30.80
2019-05-02T15:19:06.052Z,30.00
2019-05-02T15:24:08.414Z,30.30
2019-05-02T15:29:12.291Z,29.80
2019-05-02T15:34:46.235Z,29.50
2019-05-02T15:44:46.803Z,29.30
2019-05-02T15:49:50.311Z,29.40
2019-05-02T15:54:59.921Z,29.90
2019-05-02T15:59:57.274Z,28.50
2019-05-02T16:05:02.333Z,27.20
2019-05-02T16:10:05.382Z,27.00
2019-05-02T16:15:13.514Z,26.80
2019-05-02T16:20:19.633Z,26.80
2019-05-02T16:25:24.486Z,27.00
2019-05-02T16:30:26.473Z,27.00
2019-05-02T16:35:30.470Z,26.90
2019-05-02T16:40:34.892Z,26.40
2019-05-02T16:45:37.318Z,25.00
2019-05-02T16:50:39.639Z,24.20
2019-05-02T16:55:43.633Z,23.60
2019-05-02T17:00:46.223Z,23.10
2019-05-02T17:05:49.728Z,22.70
2019-05-02T17:10:57.118Z,22.40
2019-05-02T17:16:06.922Z,22.40
2019-05-02T17:21:04.671Z,22.90
2019-05-02T17:26:07.110Z,23.70
2019-05-02T17:31:18.808Z,23.30
2019-05-02T17:36:14.869Z,22.70
2019-05-02T17:41:17.703Z,22.20
2019-05-02T17:46:23.672Z,21.80
2019-05-02T17:51:37.872Z,21.30
2019-05-02T17:56:42.026Z,20.60
2019-05-02T18:01:45.425Z,20.00
2019-05-02T18:06:52.343Z,19.60
2019-05-02T18:11:52.398Z,19.20
2019-05-02T18:16:55.703Z,18.80
2019-05-02T18:22:03.669Z,18.60
2019-05-02T18:27:03.568Z,18.30
2019-05-02T18:32:06.053Z,18.00
2019-05-02T18:37:08.622Z,17.60
2019-05-02T18:42:11.993Z,17.20
2019-05-02T18:47:20.106Z,16.80
2019-05-02T18:52:19.209Z,16.50
2019-05-02T18:57:25.854Z,16.20
2019-05-02T19:02:32.820Z,15.90
2019-05-02T19:07:35.672Z,15.70
2019-05-02T19:12:35.735Z,15.60
2019-05-02T19:17:40.372Z,15.50
2019-05-02T19:22:51.842Z,15.50
2019-05-02T19:27:59.336Z,15.60
2019-05-02T19:33:03.717Z,15.70
2019-05-02T19:38:06.211Z,15.70
2019-05-02T19:43:08.920Z,15.90
2019-05-02T19:48:13.824Z,16.00
2019-05-02T19:53:18.266Z,16.10
2019-05-02T19:58:19.999Z,16.20
2019-05-02T20:03:56.745Z,16.20
2019-05-02T20:14:47.670Z,15.90
2019-05-02T20:20:05.504Z,16.00
2019-05-02T20:25:04.037Z,15.90
2019-05-02T20:30:08.708Z,15.90
2019-05-02T20:41:23.711Z,15.70
2019-05-02T20:46:33.883Z,15.60
2019-05-02T20:51:36.566Z,15.60
2019-05-02T20:56:39.155Z,15.60
2019-05-02T21:01:42.920Z,15.60
2019-05-02T21:12:58.652Z,15.40
2019-05-02T21:18:11.615Z,15.40
2019-05-02T21:23:42.001Z,15.30
2019-05-02T21:39:51.895Z,14.70
2019-05-02T21:50:52.414Z,14.10
2019-05-02T22:02:15.343Z,13.90
2019-05-02T22:07:49.416Z,13.80
2019-05-02T22:13:19.359Z,13.80
2019-05-02T22:29:33.994Z,13.80
2019-05-02T22:40:55.218Z,13.80
2019-05-02T22:45:57.675Z,13.80
2019-05-02T22:51:00.075Z,13.80
2019-05-02T22:56:47.534Z,13.80
2019-05-02T23:02:22.583Z,13.80
2019-05-02T23:07:24.984Z,13.80
2019-05-02T23:18:26.265Z,13.70
